National Weather Service United States Department of Commerce
Pre-Duty Controller Weather Briefing
The Pre-Duty Controller Weather Briefing is designed to increase controller situational awareness. This video is for ATC planning purposes only. It is produced by the Center Weather Service Unit three times daily. After hours or during changing weather this briefing may not represent the latest information. This product does not replace pilot pre-flight briefings.

     


This video was based on the Pre-Duty/Stand-Up Weather Briefing Page, and this Worksheet is used during Stand-Up Briefings.

If your browser did not allow embedded video or it did not update when expected, please open the ZSEPDWB.mp4 file directly at
   NIDS/CMS (default) or Western Region.


PDWB with additional site-specific info: 

Latest Data:
Images


000
FTUS46 KSEW 091731
TAFSEA
TAF
KSEA 091731Z 0918/1024 18008KT P6SM BKN040 OVC080
FM100000 11012KT P6SM -RA OVC040
FM100300 11014G22KT 6SM -RA BR OVC027 WS020/14040KT
FM101200 12012G18KT 6SM -RA BR OVC022
FM101700 12010KT 6SM -SHRA BR BKN025 OVC035=


000
FTUS46 KPQR 091723
TAFPDX
TAF
KPDX 091723Z 0918/1018 13007KT P6SM RA SCT020 OVC035
FM092300 11011KT 3SM RA BR OVC017
FM100000 10015KT 3SM +RA BR OVC020
FM100200 10015KT 4SM +RA BR OVC019
FM100400 10013KT 4SM +RA BR OVC020 WS020/18035KT
FM100600 12009KT P6SM RA OVC023 WS020/19045KT=